KSLN

Salina Regional Airport

Salina, Kansas, USA
METAR KSLN 261253Z 19003KT 10SM CLR 22/19 A2984 RMK AO2 SLP092 T02170194
Observed Flight Rules
May-26 @ 12:53 UTC (35 minutes ago) Visual Flight Rules
Wind Visibility Clouds
190° at 3 knots 10 miles
  • Clear skies
Temperatures Readings
Current 22°C / 72°F
Dewpoint 19°C / 66°F
Humidity 83%
Altimeter 29.84" Hg
Pressure 1009.2 hPa
Elevation 385
METAR KSLN 261253Z 19003KT 10SM CLR 22/19 A2984 RMK AO2 SLP092 T02170194
Observed Flight Rules
May-26 @ 12:53 UTC
(35 minutes ago)
VFR
Wind Visibility
190° at 3 knots 10 miles
Clouds
  • Clear skies
Temperature Dewpoint
22°C / 72°F 19°C / 66°F
Humidity Altimeter Pressure
83% 29.84" Hg 1009.2 hPa